Time;durP1;ratioP1;P1;durP2;ratioP2;P2;SDS_P1;SDS_P2;PMS_P1;PMS_P2;Temp;Humidity;BMP_temperature;BMP_pressure;BME280_temperature;BME280_humidity;BME280_pressure;Samples;Min_cycle;Max_cycle;Signal;HPM_P1;HPM_P2
2024/01/23 00:00:07;;;;;;;11.30;4.10;;;;;21.40;100473.00;;;;2070036;28;20222;-58
2024/01/23 00:01:08;;;;;;;10.05;5.07;;;;;21.40;100473.00;;;;2069650;28;20592;-57
2024/01/23 00:02:08;;;;;;;9.90;4.78;;;;;21.40;100484.00;;;;2070560;28;20229;-56
2024/01/23 00:03:09;;;;;;;8.73;3.90;;;;;21.40;100475.00;;;;2070813;28;20651;-58
2024/01/23 00:04:09;;;;;;;10.63;4.60;;;;;21.40;100472.00;;;;2059579;28;20206;-58
2024/01/23 00:05:10;;;;;;;11.03;4.27;;;;;21.40;100474.00;;;;2071690;28;20306;-57
2024/01/23 00:06:10;;;;;;;7.87;4.70;;;;;21.30;100474.00;;;;2070562;28;20689;-57
2024/01/23 00:07:10;;;;;;;12.20;4.57;;;;;21.40;100471.00;;;;2074569;28;20220;-60
2024/01/23 00:08:11;;;;;;;7.43;4.20;;;;;21.40;100474.00;;;;2071558;28;20225;-58
2024/01/23 00:09:11;;;;;;;8.97;4.00;;;;;21.30;100469.00;;;;2060968;28;20222;-58
2024/01/23 00:10:11;;;;;;;10.17;3.70;;;;;21.40;100467.00;;;;2070059;28;20693;-58
2024/01/23 00:11:12;;;;;;;13.73;4.30;;;;;21.30;100468.00;;;;2070509;28;20214;-58
2024/01/23 00:12:13;;;;;;;9.17;3.93;;;;;21.30;100491.00;;;;2071723;28;20300;-57
2024/01/23 00:13:13;;;;;;;8.10;3.80;;;;;21.30;100484.00;;;;2070981;28;20226;-58
2024/01/23 00:14:14;;;;;;;7.83;3.43;;;;;21.40;100463.00;;;;2059203;28;20449;-58
2024/01/23 00:15:14;;;;;;;8.00;3.33;;;;;21.30;100463.00;;;;2069675;28;20225;-57
2024/01/23 00:16:15;;;;;;;9.67;3.90;;;;;21.30;100469.00;;;;2072518;28;20259;-57
2024/01/23 00:17:15;;;;;;;9.00;3.33;;;;;21.30;100454.00;;;;2071433;28;20253;-57
2024/01/23 00:18:16;;;;;;;11.30;4.47;;;;;21.30;100470.00;;;;2062014;28;20236;-57
2024/01/23 00:19:16;;;;;;;8.33;3.20;;;;;21.30;100475.00;;;;2071059;28;20252;-58
2024/01/23 00:20:17;;;;;;;9.27;3.70;;;;;21.30;100484.00;;;;2069157;28;21628;-59
2024/01/23 00:21:17;;;;;;;9.30;3.93;;;;;21.40;100513.00;;;;2076009;28;20300;-58
2024/01/23 00:22:17;;;;;;;11.30;4.00;;;;;21.40;100490.00;;;;2070421;28;20218;-58
2024/01/23 00:23:18;;;;;;;8.10;3.33;;;;;21.30;100484.00;;;;2062304;28;20218;-58
2024/01/23 00:24:18;;;;;;;12.30;3.43;;;;;21.30;100495.00;;;;2069389;28;20237;-57
2024/01/23 00:25:18;;;;;;;6.97;3.43;;;;;21.30;100495.00;;;;2069824;28;20443;-58
2024/01/23 00:26:19;;;;;;;10.50;3.70;;;;;21.30;100499.00;;;;2070217;28;20240;-57
2024/01/23 00:27:19;;;;;;;8.00;3.93;;;;;21.30;100506.00;;;;2070077;28;20226;-58
2024/01/23 00:28:19;;;;;;;6.13;3.20;;;;;21.30;100504.00;;;;2060904;28;20264;-58
2024/01/23 00:29:20;;;;;;;7.43;4.00;;;;;21.30;100508.00;;;;2070097;28;20301;-59
2024/01/23 00:30:20;;;;;;;8.20;2.93;;;;;21.30;100520.00;;;;2071579;28;20229;-58
2024/01/23 00:31:20;;;;;;;7.97;3.67;;;;;21.30;100506.00;;;;2070415;28;20222;-58
2024/01/23 00:32:22;;;;;;;7.70;3.30;;;;;21.30;100510.00;;;;2070532;28;20272;-58
2024/01/23 00:33:22;;;;;;;8.18;3.47;;;;;21.30;100516.00;;;;2061570;28;20214;-58
2024/01/23 00:34:22;;;;;;;9.90;2.93;;;;;21.30;100509.00;;;;2065463;28;20297;-59
2024/01/23 00:35:23;;;;;;;9.77;3.73;;;;;21.30;100513.00;;;;2065922;28;20637;-59
2024/01/23 00:36:23;;;;;;;7.90;2.90;;;;;21.30;100513.00;;;;2068874;28;20655;-57
2024/01/23 00:37:23;;;;;;;6.87;3.00;;;;;21.30;100522.00;;;;2067731;28;20923;-57
2024/01/23 00:38:24;;;;;;;6.43;3.60;;;;;21.30;100533.00;;;;2060121;28;20238;-57
2024/01/23 00:39:24;;;;;;;6.23;3.03;;;;;21.30;100523.00;;;;2069891;28;20752;-57
2024/01/23 00:40:24;;;;;;;7.63;2.97;;;;;21.30;100520.00;;;;2077459;28;20705;-57
2024/01/23 00:41:25;;;;;;;5.67;3.10;;;;;21.30;100521.00;;;;2069948;28;20612;-57
2024/01/23 00:42:25;;;;;;;6.03;2.93;;;;;21.20;100516.00;;;;2075624;28;20312;-57
2024/01/23 00:43:26;;;;;;;5.90;2.97;;;;;21.20;100521.00;;;;2052503;28;20211;-58
2024/01/23 00:44:26;;;;;;;6.37;3.10;;;;;21.20;100539.00;;;;2070454;28;20827;-57
2024/01/23 00:45:26;;;;;;;6.40;3.20;;;;;21.20;100540.00;;;;2069124;28;20211;-58
2024/01/23 00:46:27;;;;;;;4.77;2.80;;;;;21.20;100545.00;;;;2069686;28;20206;-58
2024/01/23 00:47:28;;;;;;;6.67;3.13;;;;;21.20;100553.00;;;;2077977;28;20221;-58
2024/01/23 00:48:28;;;;;;;8.70;3.23;;;;;21.20;100543.00;;;;2061626;28;20488;-57
2024/01/23 00:49:28;;;;;;;10.07;3.07;;;;;21.20;100549.00;;;;2076944;28;20247;-57
2024/01/23 00:50:29;;;;;;;6.50;2.93;;;;;21.20;100550.00;;;;2074177;28;20233;-57
2024/01/23 00:51:29;;;;;;;9.00;2.83;;;;;21.20;100565.00;;;;2070261;28;20311;-58
2024/01/23 00:52:30;;;;;;;6.33;2.60;;;;;21.20;100551.00;;;;2069964;28;20213;-57
2024/01/23 00:53:30;;;;;;;5.90;2.70;;;;;21.20;100569.00;;;;2060522;28;20222;-57
2024/01/23 00:54:30;;;;;;;6.50;2.73;;;;;21.20;100561.00;;;;2060979;28;20867;-57
2024/01/23 00:55:30;;;;;;;6.13;2.10;;;;;21.20;100555.00;;;;2069946;28;20736;-57
2024/01/23 00:56:31;;;;;;;7.50;3.10;;;;;21.20;100558.00;;;;2073134;28;20217;-57
2024/01/23 00:57:32;;;;;;;6.17;2.50;;;;;21.20;100562.00;;;;2070100;28;20217;-57
2024/01/23 00:58:32;;;;;;;8.93;3.23;;;;;21.30;100567.00;;;;2058240;28;20308;-58
2024/01/23 00:59:32;;;;;;;7.50;2.73;;;;;21.20;100562.00;;;;2068630;28;20469;-57
2024/01/23 01:00:33;;;;;;;7.07;3.23;;;;;21.20;100571.00;;;;2069700;28;20221;-57
2024/01/23 01:01:33;;;;;;;7.10;2.90;;;;;21.20;100582.00;;;;2068635;28;20234;-57
2024/01/23 01:02:33;;;;;;;6.37;2.67;;;;;21.20;100575.00;;;;2062812;28;20207;-57
2024/01/23 01:03:34;;;;;;;5.43;2.23;;;;;21.20;100582.00;;;;2059170;28;20308;-57
2024/01/23 01:04:35;;;;;;;7.63;2.87;;;;;21.20;100591.00;;;;2071037;28;20214;-58
2024/01/23 01:05:35;;;;;;;5.27;2.30;;;;;21.20;100598.00;;;;2069316;28;20214;-57
2024/01/23 01:06:35;;;;;;;8.30;2.87;;;;;21.20;100586.00;;;;2069048;28;20454;-57
2024/01/23 01:07:36;;;;;;;8.43;2.43;;;;;21.20;100597.00;;;;2068462;28;20210;-57
2024/01/23 01:08:36;;;;;;;5.53;2.10;;;;;21.10;100595.00;;;;2059921;28;20233;-58
2024/01/23 01:09:36;;;;;;;8.10;2.70;;;;;21.10;100594.00;;;;2068952;28;20226;-59
2024/01/23 01:10:37;;;;;;;6.27;2.53;;;;;21.10;100602.00;;;;2069353;28;20265;-59
2024/01/23 01:11:37;;;;;;;6.37;2.17;;;;;21.10;100590.00;;;;2069407;28;20228;-59
2024/01/23 01:12:37;;;;;;;5.77;3.07;;;;;21.10;100597.00;;;;2076863;28;20221;-59
2024/01/23 01:13:38;;;;;;;5.10;2.30;;;;;21.10;100600.00;;;;2059012;28;20239;-58
2024/01/23 01:14:38;;;;;;;5.57;3.00;;;;;21.10;100602.00;;;;2068461;28;20225;-57
2024/01/23 01:15:38;;;;;;;6.83;2.50;;;;;21.10;100604.00;;;;2069234;28;20242;-59
2024/01/23 01:16:39;;;;;;;6.20;2.13;;;;;21.10;100605.00;;;;2070804;28;20237;-58
2024/01/23 01:17:39;;;;;;;5.30;2.10;;;;;21.10;100610.00;;;;2069252;28;20256;-59
2024/01/23 01:18:42;;;;;;;5.73;2.40;;;;;21.10;100606.00;;;;2059241;28;20222;-59
2024/01/23 01:19:43;;;;;;;6.25;2.60;;;;;21.10;100616.00;;;;2069643;28;20226;-60
2024/01/23 01:20:44;;;;;;;5.37;2.20;;;;;21.10;100610.00;;;;2069656;28;20229;-60
2024/01/23 01:21:44;;;;;;;4.97;2.15;;;;;21.10;100613.00;;;;2069224;28;20720;-59
2024/01/23 01:22:44;;;;;;;7.30;2.20;;;;;21.10;100621.00;;;;2069778;28;20221;-59
2024/01/23 01:23:45;;;;;;;5.50;2.63;;;;;21.10;100620.00;;;;2059880;28;20288;-59
2024/01/23 01:24:46;;;;;;;6.33;2.53;;;;;21.10;100612.00;;;;2076898;28;20217;-59
2024/01/23 01:25:47;;;;;;;7.82;2.22;;;;;21.10;100618.00;;;;2073144;28;20228;-59
2024/01/23 01:26:47;;;;;;;6.27;2.57;;;;;21.10;100634.00;;;;2075770;28;20221;-60
2024/01/23 01:27:47;;;;;;;6.10;2.30;;;;;21.10;100624.00;;;;2068473;28;20290;-59
2024/01/23 01:28:48;;;;;;;7.20;2.47;;;;;21.10;100629.00;;;;2060046;28;20225;-58
2024/01/23 01:29:48;;;;;;;4.90;1.87;;;;;21.10;100634.00;;;;2069391;28;20284;-63
2024/01/23 01:30:48;;;;;;;6.50;1.93;;;;;21.10;100640.00;;;;2069297;28;20265;-60
2024/01/23 01:31:49;;;;;;;5.77;2.43;;;;;21.10;100643.00;;;;2069872;28;20221;-59
2024/01/23 01:32:49;;;;;;;6.50;2.27;;;;;21.10;100602.00;;;;2069753;28;20210;-59
2024/01/23 01:33:49;;;;;;;5.40;1.60;;;;;21.10;100650.00;;;;2062840;28;20237;-59
2024/01/23 01:34:50;;;;;;;5.87;2.17;;;;;20.70;100651.00;;;;2068731;28;20220;-59
2024/01/23 01:35:52;;;;;;;5.57;2.10;;;;;21.10;100637.00;;;;2071948;28;20210;-59
2024/01/23 01:36:52;;;;;;;6.10;2.30;;;;;21.10;100646.00;;;;2069533;28;20210;-58
2024/01/23 01:37:53;;;;;;;8.70;2.60;;;;;21.10;100652.00;;;;2069453;28;20221;-59
2024/01/23 01:38:53;;;;;;;4.10;1.90;;;;;21.00;100650.00;;;;2059631;28;20210;-59
2024/01/23 01:39:53;;;;;;;6.10;2.03;;;;;21.00;100640.00;;;;2069190;28;20233;-59
2024/01/23 01:40:54;;;;;;;7.43;2.20;;;;;21.00;100648.00;;;;2074827;28;20221;-59
2024/01/23 01:41:54;;;;;;;4.60;2.20;;;;;21.00;100645.00;;;;2069753;28;20202;-58
2024/01/23 01:42:55;;;;;;;5.73;1.90;;;;;21.00;100651.00;;;;2070271;28;20609;-58
2024/01/23 01:43:55;;;;;;;5.03;2.00;;;;;21.00;100654.00;;;;2058697;28;20214;-58
2024/01/23 01:44:55;;;;;;;6.53;1.80;;;;;21.00;100650.00;;;;2071219;28;20214;-58
2024/01/23 01:46:15;;;;;;;7.27;1.70;;;;;21.10;100655.00;;;;2074699;28;20221;-59
2024/01/23 01:47:15;;;;;;;6.10;2.00;;;;;21.00;100654.00;;;;2068222;28;20260;-59
2024/01/23 01:48:16;;;;;;;5.43;2.20;;;;;21.00;100667.00;;;;2054272;28;20226;-58
2024/01/23 01:49:16;;;;;;;4.60;1.90;;;;;21.00;100662.00;;;;2068228;28;20226;-58
2024/01/23 01:50:16;;;;;;;5.77;2.37;;;;;21.00;100634.00;;;;2068677;28;20223;-59
2024/01/23 01:51:21;;;;;;;4.70;1.90;;;;;21.00;100667.00;;;;2052695;28;20215;-59
2024/01/23 01:52:22;;;;;;;7.60;2.00;;;;;21.00;100665.00;;;;2074180;28;20256;-59
2024/01/23 01:53:22;;;;;;;10.20;2.20;;;;;21.00;100657.00;;;;2056161;28;20206;-59
2024/01/23 01:54:22;;;;;;;5.90;1.83;;;;;21.00;100658.00;;;;2069204;28;20206;-59
2024/01/23 01:55:23;;;;;;;5.27;1.90;;;;;21.00;100656.00;;;;2069916;28;20217;-59
2024/01/23 01:56:23;;;;;;;4.77;1.87;;;;;21.00;100647.00;;;;2068295;28;20242;-59
2024/01/23 01:57:23;;;;;;;4.27;1.90;;;;;21.00;100650.00;;;;2070936;28;20222;-58
2024/01/23 01:58:24;;;;;;;4.50;1.80;;;;;20.90;100654.00;;;;2059003;28;20209;-59
2024/01/23 01:59:25;;;;;;;4.77;1.90;;;;;20.90;100663.00;;;;2059762;28;20207;-59
2024/01/23 02:00:25;;;;;;;4.90;1.83;;;;;21.00;100658.00;;;;2068499;28;20658;-59
2024/01/23 02:01:25;;;;;;;5.30;2.40;;;;;20.90;100658.00;;;;2071850;28;20237;-59
2024/01/23 02:02:26;;;;;;;5.60;1.97;;;;;20.90;100662.00;;;;2070364;28;20217;-58
2024/01/23 02:03:27;;;;;;;4.63;1.73;;;;;20.90;100655.00;;;;2059828;28;20221;-58
2024/01/23 02:04:27;;;;;;;4.13;1.98;;;;;21.00;100651.00;;;;2068168;28;20244;-59
2024/01/23 02:05:28;;;;;;;5.57;2.10;;;;;20.90;100654.00;;;;2069017;28;20580;-59
2024/01/23 02:06:30;;;;;;;6.77;2.03;;;;;20.90;100662.00;;;;2068627;28;20707;-58
2024/01/23 02:07:31;;;;;;;5.10;2.00;;;;;21.00;100654.00;;;;2068696;28;20214;-58
2024/01/23 02:08:31;;;;;;;5.20;1.73;;;;;21.00;100670.00;;;;2050053;28;20297;-59
2024/01/23 02:09:31;;;;;;;4.70;1.80;;;;;20.90;100656.00;;;;2060735;28;20308;-59
2024/01/23 02:10:32;;;;;;;5.70;1.67;;;;;20.90;100662.00;;;;2068929;28;20244;-59
2024/01/23 02:11:32;;;;;;;4.70;1.43;;;;;21.00;100660.00;;;;2061296;28;20219;-59
2024/01/23 02:12:32;;;;;;;5.60;2.07;;;;;21.00;100670.00;;;;2068326;28;20302;-59
2024/01/23 02:13:33;;;;;;;4.00;1.70;;;;;21.00;100666.00;;;;2062221;28;20257;-60
2024/01/23 02:14:33;;;;;;;4.73;2.00;;;;;20.90;100674.00;;;;2068973;28;20642;-58
2024/01/23 02:15:33;;;;;;;3.87;1.33;;;;;20.90;100693.00;;;;2070949;28;20768;-60
2024/01/23 02:16:34;;;;;;;4.60;1.80;;;;;21.00;100684.00;;;;2069653;28;20584;-59
2024/01/23 02:17:34;;;;;;;6.03;1.80;;;;;20.90;100680.00;;;;2069246;28;20614;-59
2024/01/23 02:18:34;;;;;;;6.63;2.23;;;;;21.00;100686.00;;;;2051163;28;20250;-58
2024/01/23 02:19:35;;;;;;;4.10;1.73;;;;;20.90;100688.00;;;;2076790;28;20217;-58
2024/01/23 02:20:35;;;;;;;5.70;1.53;;;;;20.90;100687.00;;;;2071172;28;20284;-59
2024/01/23 02:21:35;;;;;;;4.00;1.27;;;;;20.90;100689.00;;;;2060315;28;20231;-59
2024/01/23 02:22:36;;;;;;;4.23;1.67;;;;;20.90;100704.00;;;;2068853;28;20232;-59
2024/01/23 02:23:36;;;;;;;4.30;1.50;;;;;20.90;100697.00;;;;2058185;28;20230;-59
2024/01/23 02:24:36;;;;;;;7.50;1.80;;;;;20.90;100568.00;;;;2068256;28;20291;-59
2024/01/23 02:25:37;;;;;;;5.00;1.53;;;;;20.90;100715.00;;;;2069027;28;20218;-59
2024/01/23 02:26:37;;;;;;;4.50;1.77;;;;;20.90;100717.00;;;;2068917;28;20297;-59
2024/01/23 02:27:37;;;;;;;5.00;1.57;;;;;20.90;100728.00;;;;2073929;28;20307;-58
2024/01/23 02:28:38;;;;;;;4.43;2.00;;;;;20.90;100735.00;;;;2059607;28;20237;-58
2024/01/23 02:29:38;;;;;;;4.87;2.00;;;;;20.90;100726.00;;;;2071023;28;20221;-58
2024/01/23 02:30:38;;;;;;;4.77;1.60;;;;;20.80;100734.00;;;;2069293;28;20222;-59
2024/01/23 02:31:39;;;;;;;5.27;1.80;;;;;20.90;100730.00;;;;2069176;28;20696;-59
2024/01/23 02:32:46;;;;;;;5.00;1.93;;;;;20.90;100733.00;;;;2076389;28;20220;-59
2024/01/23 02:33:46;;;;;;;5.65;1.80;;;;;20.90;100717.00;;;;2055509;28;20226;-59
2024/01/23 02:34:46;;;;;;;4.20;1.30;;;;;20.80;100723.00;;;;2068379;28;20226;-59
2024/01/23 02:35:47;;;;;;;4.93;1.57;;;;;20.90;100715.00;;;;2068912;28;20265;-59
2024/01/23 02:36:47;;;;;;;5.27;2.10;;;;;20.90;100725.00;;;;2068999;28;20232;-59
2024/01/23 02:37:47;;;;;;;5.30;1.70;;;;;20.90;100730.00;;;;2068228;28;20265;-59
2024/01/23 02:38:48;;;;;;;4.77;1.37;;;;;20.80;100730.00;;;;2058364;28;20213;-59
2024/01/23 02:39:48;;;;;;;3.97;1.80;;;;;20.80;100731.00;;;;2073684;28;20213;-58
2024/01/23 02:40:48;;;;;;;6.53;1.70;;;;;20.80;100739.00;;;;2068489;28;20634;-59
2024/01/23 02:41:49;;;;;;;4.90;1.60;;;;;20.80;100746.00;;;;2071176;28;20581;-59
2024/01/23 02:42:49;;;;;;;4.30;1.67;;;;;20.80;100737.00;;;;2065005;28;20584;-59
2024/01/23 02:43:49;;;;;;;5.07;1.70;;;;;20.80;100737.00;;;;2058009;28;20742;-59
2024/01/23 02:44:50;;;;;;;5.07;1.70;;;;;20.90;100741.00;;;;2071238;28;20620;-59
2024/01/23 02:45:50;;;;;;;3.80;1.50;;;;;20.80;100741.00;;;;2068880;28;20625;-59
2024/01/23 02:46:52;;;;;;;4.77;1.57;;;;;20.80;100736.00;;;;2063129;28;20203;-63
2024/01/23 02:47:52;;;;;;;4.82;1.27;;;;;20.80;100750.00;;;;2069404;28;20202;-58
2024/01/23 02:48:52;;;;;;;3.67;1.80;;;;;20.80;100748.00;;;;2061564;28;20645;-59
2024/01/23 02:49:53;;;;;;;4.83;1.60;;;;;20.80;100750.00;;;;2067904;28;20210;-59
2024/01/23 02:50:53;;;;;;;4.17;1.23;;;;;20.80;100740.00;;;;2073007;28;20210;-59
2024/01/23 02:51:53;;;;;;;3.57;1.83;;;;;20.80;100724.00;;;;2070225;28;20317;-59
2024/01/23 02:52:54;;;;;;;3.70;1.47;;;;;20.80;100742.00;;;;2068963;28;20239;-59
2024/01/23 02:53:54;;;;;;;3.60;1.27;;;;;20.80;100745.00;;;;2061029;28;20220;-59
2024/01/23 02:54:54;;;;;;;3.97;1.50;;;;;20.80;100742.00;;;;2069210;28;20678;-59
2024/01/23 02:55:55;;;;;;;3.90;1.33;;;;;20.80;100758.00;;;;2071484;28;20225;-59
2024/01/23 02:56:55;;;;;;;5.80;1.60;;;;;20.80;100741.00;;;;2069293;28;20224;-58
2024/01/23 02:57:55;;;;;;;3.00;1.17;;;;;20.30;100759.00;;;;2070391;28;20218;-58
2024/01/23 02:58:56;;;;;;;3.97;1.47;;;;;20.80;100753.00;;;;2065017;28;20213;-59
2024/01/23 02:59:56;;;;;;;4.67;1.50;;;;;20.80;100760.00;;;;2068524;28;20261;-59
2024/01/23 03:00:56;;;;;;;5.57;1.70;;;;;20.80;100767.00;;;;2067261;28;20713;-59
2024/01/23 03:01:57;;;;;;;3.80;1.47;;;;;20.80;100763.00;;;;2068522;28;20221;-59
2024/01/23 03:02:57;;;;;;;3.70;1.37;;;;;20.80;100773.00;;;;2068684;28;20203;-58
2024/01/23 03:03:57;;;;;;;4.30;1.70;;;;;20.80;100755.00;;;;2055063;28;20206;-58
2024/01/23 03:04:58;;;;;;;5.00;1.40;;;;;20.70;100778.00;;;;2068668;28;20217;-59
2024/01/23 03:05:58;;;;;;;3.70;1.30;;;;;20.80;100778.00;;;;2069116;28;20275;-59
2024/01/23 03:06:58;;;;;;;5.67;1.70;;;;;20.80;100787.00;;;;2067006;28;20293;-59
2024/01/23 03:07:59;;;;;;;4.20;1.43;;;;;20.80;100773.00;;;;2072588;28;20217;-58
2024/01/23 03:08:59;;;;;;;5.47;1.57;;;;;20.80;100782.00;;;;2058546;28;21867;-59
2024/01/23 03:09:59;;;;;;;4.80;1.60;;;;;20.80;100786.00;;;;2069991;28;20265;-58
2024/01/23 03:11:00;;;;;;;3.93;1.27;;;;;20.80;100782.00;;;;2066411;28;20219;-58
2024/01/23 03:12:03;;;;;;;3.50;1.33;;;;;20.80;100789.00;;;;2062964;28;20214;-58
2024/01/23 03:13:04;;;;;;;4.90;1.70;;;;;20.80;100794.00;;;;2068957;28;20778;-58
2024/01/23 03:14:04;;;;;;;4.43;1.47;;;;;20.80;100791.00;;;;2057228;28;20220;-58
2024/01/23 03:15:05;;;;;;;3.37;1.23;;;;;20.70;100799.00;;;;2071111;28;20206;-58
2024/01/23 03:16:05;;;;;;;4.13;1.40;;;;;20.70;100793.00;;;;2068044;28;20272;-59
2024/01/23 03:17:06;;;;;;;6.27;2.13;;;;;20.70;100805.00;;;;2063062;28;20264;-59
2024/01/23 03:18:09;;;;;;;3.80;1.33;;;;;20.70;100802.00;;;;2066622;28;20461;-59
2024/01/23 03:19:09;;;;;;;4.95;1.38;;;;;20.70;100805.00;;;;2056492;28;20218;-58
2024/01/23 03:20:10;;;;;;;4.80;1.50;;;;;20.70;100809.00;;;;2069740;28;20678;-58
2024/01/23 03:21:11;;;;;;;4.10;1.20;;;;;20.70;100824.00;;;;2070179;28;20926;-58
2024/01/23 03:22:11;;;;;;;3.70;1.20;;;;;20.70;100821.00;;;;2069459;28;20460;-59
2024/01/23 03:23:11;;;;;;;4.27;1.10;;;;;20.70;100821.00;;;;2070412;28;20206;-58
2024/01/23 03:24:12;;;;;;;3.90;1.37;;;;;20.70;100820.00;;;;2058583;28;20222;-59
2024/01/23 03:25:12;;;;;;;3.93;1.30;;;;;20.70;100822.00;;;;2070470;28;20221;-59
2024/01/23 03:26:12;;;;;;;3.60;1.07;;;;;20.70;100877.00;;;;2069648;28;20957;-59
2024/01/23 03:27:13;;;;;;;5.90;1.80;;;;;20.70;100829.00;;;;2073998;28;20701;-59
2024/01/23 03:28:13;;;;;;;4.90;1.40;;;;;20.70;100825.00;;;;2070050;28;20644;-58
2024/01/23 03:29:13;;;;;;;3.80;1.30;;;;;20.70;100826.00;;;;2061011;28;20214;-59
2024/01/23 03:30:29;;;;;;;5.63;1.40;;;;;20.70;100830.00;;;;2070400;28;20234;-59
2024/01/23 03:31:30;;;;;;;3.55;1.10;;;;;20.70;100838.00;;;;2072259;28;20217;-59
2024/01/23 03:32:30;;;;;;;3.30;1.13;;;;;20.70;100839.00;;;;2071457;28;20206;-59
2024/01/23 03:33:31;;;;;;;3.70;1.27;;;;;20.70;100832.00;;;;2061950;28;20202;-59
2024/01/23 03:34:32;;;;;;;2.80;1.10;;;;;20.70;100839.00;;;;2070182;28;20630;-58
2024/01/23 03:35:32;;;;;;;4.47;1.40;;;;;20.70;100824.00;;;;2070187;28;20226;-59
2024/01/23 03:36:32;;;;;;;3.70;1.20;;;;;20.70;100829.00;;;;2070532;28;20226;-59
2024/01/23 03:37:33;;;;;;;4.97;1.97;;;;;20.60;100846.00;;;;2070464;28;20214;-59
2024/01/23 03:38:33;;;;;;;3.70;0.90;;;;;20.70;100851.00;;;;2063889;28;20268;-58
2024/01/23 03:39:33;;;;;;;7.87;1.37;;;;;20.70;100835.00;;;;2070524;28;20207;-58
2024/01/23 03:40:34;;;;;;;5.53;1.37;;;;;20.70;100847.00;;;;2068519;28;20214;-58
2024/01/23 03:41:37;;;;;;;7.10;1.20;;;;;20.70;100856.00;;;;2069794;28;20289;-59
2024/01/23 03:42:37;;;;;;;3.55;0.88;;;;;20.70;100852.00;;;;2069989;28;20218;-59
2024/01/23 03:43:37;;;;;;;3.40;1.43;;;;;20.60;100837.00;;;;2059458;28;20268;-59
2024/01/23 03:44:38;;;;;;;3.77;1.27;;;;;20.70;100835.00;;;;2069760;28;20222;-58
2024/01/23 03:45:38;;;;;;;4.83;1.47;;;;;20.70;100834.00;;;;2071811;28;20337;-58
2024/01/23 03:46:38;;;;;;;4.47;1.50;;;;;20.70;100856.00;;;;2070800;28;20272;-60
2024/01/23 03:47:38;;;;;;;4.17;1.40;;;;;20.70;100849.00;;;;2070242;28;20222;-59
2024/01/23 03:48:39;;;;;;;4.90;1.53;;;;;20.60;100850.00;;;;2070077;28;20325;-59
2024/01/23 03:49:39;;;;;;;4.10;1.50;;;;;20.70;100850.00;;;;2077922;28;20240;-58
2024/01/23 03:50:39;;;;;;;3.33;1.00;;;;;20.60;100856.00;;;;2069601;28;20729;-58
2024/01/23 03:51:40;;;;;;;3.40;0.93;;;;;20.60;100858.00;;;;2069230;28;20218;-58
2024/01/23 03:52:41;;;;;;;4.40;1.70;;;;;20.70;100929.00;;;;2071834;28;20280;-58
2024/01/23 03:53:41;;;;;;;4.37;1.50;;;;;20.60;100861.00;;;;2059627;28;20592;-58
2024/01/23 03:54:41;;;;;;;3.37;1.37;;;;;20.70;100862.00;;;;2068412;28;20889;-59
2024/01/23 03:55:42;;;;;;;3.10;1.00;;;;;20.60;100861.00;;;;2078171;28;20240;-59
2024/01/23 03:56:42;;;;;;;4.77;1.57;;;;;20.70;100866.00;;;;2070075;28;20233;-59
2024/01/23 03:57:44;;;;;;;3.70;1.00;;;;;20.60;100854.00;;;;2069940;28;20587;-58
2024/01/23 03:58:45;;;;;;;5.47;1.30;;;;;20.60;100886.00;;;;2051999;28;20587;-59
2024/01/23 03:59:45;;;;;;;3.63;1.73;;;;;20.60;100868.00;;;;2071576;28;20214;-60
2024/01/23 04:00:45;;;;;;;4.03;1.00;;;;;20.60;100873.00;;;;2069610;28;20229;-59
2024/01/23 04:01:46;;;;;;;3.60;1.23;;;;;20.60;100870.00;;;;2068963;28;20227;-59
2024/01/23 04:02:46;;;;;;;3.90;1.33;;;;;20.60;100873.00;;;;2065691;28;20285;-59
2024/01/23 04:03:46;;;;;;;5.90;1.00;;;;;20.60;100877.00;;;;2059099;28;20250;-59
2024/01/23 04:04:47;;;;;;;5.47;1.40;;;;;20.60;100877.00;;;;2075015;28;25306;-59
2024/01/23 04:05:47;;;;;;;4.07;1.30;;;;;20.60;100883.00;;;;2070256;28;20260;-59
2024/01/23 04:06:47;;;;;;;3.37;0.90;;;;;20.60;100881.00;;;;2070174;28;20222;-59
2024/01/23 04:07:48;;;;;;;3.30;1.20;;;;;20.60;100883.00;;;;2067835;28;20245;-59
2024/01/23 04:08:49;;;;;;;7.28;1.58;;;;;20.60;100892.00;;;;2059766;28;20222;-59
2024/01/23 04:09:49;;;;;;;3.40;1.17;;;;;20.60;100893.00;;;;2069458;28;20218;-59
2024/01/23 04:10:50;;;;;;;3.33;1.13;;;;;20.60;100897.00;;;;2069837;28;20218;-59
2024/01/23 04:11:50;;;;;;;3.37;1.00;;;;;20.60;100898.00;;;;2069493;28;20225;-59
2024/01/23 04:12:50;;;;;;;3.20;1.00;;;;;20.60;100894.00;;;;2069208;28;20210;-59
2024/01/23 04:13:51;;;;;;;2.83;1.00;;;;;20.60;100904.00;;;;2058182;28;20213;-58
2024/01/23 04:14:51;;;;;;;5.23;1.23;;;;;20.60;100906.00;;;;2069703;28;20218;-58
2024/01/23 04:15:51;;;;;;;3.17;1.27;;;;;20.60;100913.00;;;;2061221;28;20703;-59
2024/01/23 04:16:52;;;;;;;3.30;1.10;;;;;20.60;100925.00;;;;2065826;28;20226;-59
2024/01/23 04:17:55;;;;;;;4.23;1.30;;;;;20.60;100918.00;;;;2069932;28;20583;-60
2024/01/23 04:18:55;;;;;;;4.35;1.02;;;;;20.60;100908.00;;;;2060760;28;20221;-58
2024/01/23 04:19:55;;;;;;;3.00;1.10;;;;;20.60;100921.00;;;;2069193;28;20248;-58
2024/01/23 04:20:56;;;;;;;4.00;1.27;;;;;20.60;100919.00;;;;2068613;28;20229;-58
2024/01/23 04:21:56;;;;;;;2.90;0.93;;;;;19.70;100929.00;;;;2069880;28;20241;-59
2024/01/23 04:22:56;;;;;;;4.03;1.10;;;;;20.60;100920.00;;;;2070226;28;20242;-59
2024/01/23 04:23:57;;;;;;;4.20;1.37;;;;;20.60;100923.00;;;;2053293;28;20226;-59
2024/01/23 04:24:57;;;;;;;3.00;1.27;;;;;20.60;100920.00;;;;2069682;28;20588;-58
2024/01/23 04:25:58;;;;;;;4.00;1.30;;;;;20.60;100922.00;;;;2068894;28;20253;-59
2024/01/23 04:26:59;;;;;;;4.07;1.27;;;;;20.60;100935.00;;;;2070184;28;20233;-59
2024/01/23 04:27:59;;;;;;;3.03;0.90;;;;;20.60;100922.00;;;;2069270;28;20218;-61
2024/01/23 04:28:59;;;;;;;4.60;1.50;;;;;20.60;100936.00;;;;2065435;28;20304;-60
2024/01/23 04:30:00;;;;;;;4.60;0.97;;;;;20.60;100927.00;;;;2069480;28;20218;-59
2024/01/23 04:31:00;;;;;;;2.97;1.10;;;;;20.60;100928.00;;;;2070482;28;20249;-59
2024/01/23 04:32:00;;;;;;;2.80;1.37;;;;;19.90;100941.00;;;;2069946;28;20225;-59
2024/01/23 04:33:01;;;;;;;5.73;1.10;;;;;20.60;100939.00;;;;2069745;28;20218;-59
2024/01/23 04:34:01;;;;;;;2.23;0.80;;;;;20.50;100945.00;;;;2057529;28;20222;-59
2024/01/23 04:35:01;;;;;;;3.43;0.93;;;;;20.50;100950.00;;;;2069501;28;20245;-59
2024/01/23 04:36:02;;;;;;;3.57;1.13;;;;;20.50;100943.00;;;;2076321;28;20222;-59
2024/01/23 04:37:02;;;;;;;3.23;1.10;;;;;20.50;100942.00;;;;2069768;28;20238;-59
2024/01/23 04:38:03;;;;;;;2.90;0.80;;;;;20.50;100950.00;;;;2072412;28;20221;-58
2024/01/23 04:39:04;;;;;;;3.93;1.30;;;;;20.60;100953.00;;;;2058903;28;20222;-59
2024/01/23 04:40:07;;;;;;;3.07;1.30;;;;;20.50;100945.00;;;;2069311;28;20745;-58
2024/01/23 04:41:08;;;;;;;3.85;1.02;;;;;20.50;100952.00;;;;2069808;28;20280;-59
2024/01/23 04:42:08;;;;;;;3.60;0.70;;;;;20.60;100953.00;;;;2070081;28;21469;-59
2024/01/23 04:43:08;;;;;;;2.53;0.90;;;;;20.50;100950.00;;;;2075352;28;20757;-59
2024/01/23 04:44:09;;;;;;;3.00;0.90;;;;;20.50;100964.00;;;;2056457;28;20734;-60
2024/01/23 04:45:10;;;;;;;3.63;1.00;;;;;20.50;100955.00;;;;2072763;28;20640;-59
2024/01/23 04:46:10;;;;;;;5.67;1.10;;;;;20.50;100959.00;;;;2069572;28;20206;-59
2024/01/23 04:47:10;;;;;;;3.10;1.00;;;;;20.50;100968.00;;;;2070115;28;20222;-59
2024/01/23 04:48:11;;;;;;;3.20;1.20;;;;;20.50;100968.00;;;;2069909;28;20821;-58
2024/01/23 04:49:11;;;;;;;2.97;0.90;;;;;20.50;100978.00;;;;2060862;28;20213;-58
2024/01/23 04:50:11;;;;;;;3.47;1.10;;;;;20.50;100971.00;;;;2074982;28;20305;-60
2024/01/23 04:51:12;;;;;;;2.93;1.23;;;;;20.50;100964.00;;;;2069641;28;20206;-59
2024/01/23 04:52:13;;;;;;;2.73;0.90;;;;;20.50;100970.00;;;;2072211;28;20221;-60
2024/01/23 04:53:13;;;;;;;2.47;0.90;;;;;20.50;100964.00;;;;2068998;28;20453;-58
2024/01/23 04:54:13;;;;;;;4.53;1.40;;;;;20.50;100977.00;;;;2058509;28;20217;-58
2024/01/23 04:55:14;;;;;;;4.40;1.17;;;;;20.00;100977.00;;;;2069373;28;20210;-58
2024/01/23 04:56:14;;;;;;;4.17;1.57;;;;;20.50;100976.00;;;;2068477;28;20902;-59
2024/01/23 04:57:15;;;;;;;3.43;1.07;;;;;20.50;100985.00;;;;2069533;28;20222;-58
2024/01/23 04:58:15;;;;;;;3.73;1.10;;;;;20.50;100985.00;;;;2066733;28;20210;-58
2024/01/23 04:59:15;;;;;;;4.23;1.30;;;;;20.50;100985.00;;;;2061269;28;20943;-58